sensor_id;sensor_type;location;lat;lon;timestamp;P1;durP1;ratioP1;P2;durP2;ratioP2
27999;SDS011;15328;50.860;10.562;2023-04-24T00:02:29;1.33;;;0.77;;
27999;SDS011;15328;50.860;10.562;2023-04-24T00:07:30;1.27;;;0.90;;
27999;SDS011;15328;50.860;10.562;2023-04-24T00:12:30;1.20;;;1.00;;
27999;SDS011;15328;50.860;10.562;2023-04-24T00:17:31;0.80;;;0.70;;
27999;SDS011;15328;50.860;10.562;2023-04-24T00:22:31;2.15;;;0.80;;
27999;SDS011;15328;50.860;10.562;2023-04-24T00:27:31;0.90;;;0.68;;
27999;SDS011;15328;50.860;10.562;2023-04-24T00:32:32;1.30;;;0.88;;
27999;SDS011;15328;50.860;10.562;2023-04-24T00:37:32;1.63;;;0.80;;
27999;SDS011;15328;50.860;10.562;2023-04-24T00:42:32;1.40;;;0.90;;
27999;SDS011;15328;50.860;10.562;2023-04-24T00:47:33;1.17;;;0.85;;
27999;SDS011;15328;50.860;10.562;2023-04-24T00:52:34;0.80;;;0.60;;
27999;SDS011;15328;50.860;10.562;2023-04-24T00:57:34;1.63;;;1.00;;
27999;SDS011;15328;50.860;10.562;2023-04-24T01:02:36;1.23;;;0.90;;
27999;SDS011;15328;50.860;10.562;2023-04-24T01:07:40;1.38;;;1.10;;
27999;SDS011;15328;50.860;10.562;2023-04-24T01:12:45;1.10;;;0.88;;
27999;SDS011;15328;50.860;10.562;2023-04-24T01:17:46;1.63;;;1.05;;
27999;SDS011;15328;50.860;10.562;2023-04-24T01:22:46;1.83;;;1.10;;
27999;SDS011;15328;50.860;10.562;2023-04-24T01:27:47;2.10;;;1.20;;
27999;SDS011;15328;50.860;10.562;2023-04-24T01:32:47;1.53;;;1.10;;
27999;SDS011;15328;50.860;10.562;2023-04-24T01:37:48;1.98;;;1.50;;
27999;SDS011;15328;50.860;10.562;2023-04-24T01:42:49;2.35;;;1.45;;
27999;SDS011;15328;50.860;10.562;2023-04-24T01:47:49;4.13;;;1.90;;
27999;SDS011;15328;50.860;10.562;2023-04-24T01:52:50;2.30;;;1.27;;
27999;SDS011;15328;50.860;10.562;2023-04-24T01:57:51;2.47;;;1.60;;
27999;SDS011;15328;50.860;10.562;2023-04-24T02:02:52;2.53;;;1.45;;
27999;SDS011;15328;50.860;10.562;2023-04-24T02:07:52;2.00;;;1.42;;
27999;SDS011;15328;50.860;10.562;2023-04-24T02:12:54;2.38;;;1.58;;
27999;SDS011;15328;50.860;10.562;2023-04-24T02:17:54;3.85;;;1.92;;
27999;SDS011;15328;50.860;10.562;2023-04-24T02:22:54;2.47;;;1.83;;
27999;SDS011;15328;50.860;10.562;2023-04-24T02:27:55;2.85;;;1.70;;
27999;SDS011;15328;50.860;10.562;2023-04-24T02:32:55;2.97;;;2.00;;
27999;SDS011;15328;50.860;10.562;2023-04-24T02:37:56;4.22;;;1.80;;
27999;SDS011;15328;50.860;10.562;2023-04-24T02:42:56;3.15;;;1.60;;
27999;SDS011;15328;50.860;10.562;2023-04-24T02:47:56;2.43;;;1.40;;
27999;SDS011;15328;50.860;10.562;2023-04-24T02:52:57;2.05;;;1.50;;
27999;SDS011;15328;50.860;10.562;2023-04-24T02:57:57;1.30;;;1.20;;
27999;SDS011;15328;50.860;10.562;2023-04-24T03:02:58;1.80;;;1.47;;
27999;SDS011;15328;50.860;10.562;2023-04-24T03:07:58;2.75;;;1.60;;
27999;SDS011;15328;50.860;10.562;2023-04-24T03:12:59;2.17;;;1.50;;
27999;SDS011;15328;50.860;10.562;2023-04-24T03:17:59;1.83;;;1.53;;
27999;SDS011;15328;50.860;10.562;2023-04-24T03:23:00;2.80;;;1.38;;
27999;SDS011;15328;50.860;10.562;2023-04-24T03:28:00;2.08;;;1.52;;
27999;SDS011;15328;50.860;10.562;2023-04-24T03:33:01;2.63;;;1.60;;
27999;SDS011;15328;50.860;10.562;2023-04-24T03:38:01;2.28;;;1.40;;
27999;SDS011;15328;50.860;10.562;2023-04-24T03:43:04;2.58;;;1.60;;
27999;SDS011;15328;50.860;10.562;2023-04-24T03:48:04;2.25;;;1.20;;
27999;SDS011;15328;50.860;10.562;2023-04-24T03:53:04;2.87;;;1.40;;
27999;SDS011;15328;50.860;10.562;2023-04-24T03:58:05;1.53;;;1.17;;
27999;SDS011;15328;50.860;10.562;2023-04-24T04:03:06;4.13;;;1.90;;
27999;SDS011;15328;50.860;10.562;2023-04-24T04:08:06;5.03;;;3.50;;
27999;SDS011;15328;50.860;10.562;2023-04-24T04:13:06;5.47;;;2.70;;
27999;SDS011;15328;50.860;10.562;2023-04-24T04:18:07;3.43;;;1.73;;
27999;SDS011;15328;50.860;10.562;2023-04-24T04:23:08;2.40;;;1.63;;
27999;SDS011;15328;50.860;10.562;2023-04-24T04:28:08;3.77;;;2.07;;
27999;SDS011;15328;50.860;10.562;2023-04-24T04:33:09;3.80;;;1.50;;
27999;SDS011;15328;50.860;10.562;2023-04-24T04:38:10;1.73;;;1.63;;
27999;SDS011;15328;50.860;10.562;2023-04-24T04:43:11;2.93;;;1.50;;
27999;SDS011;15328;50.860;10.562;2023-04-24T04:48:13;1.95;;;1.50;;
27999;SDS011;15328;50.860;10.562;2023-04-24T04:53:14;3.78;;;2.10;;
27999;SDS011;15328;50.860;10.562;2023-04-24T04:58:14;3.47;;;1.70;;
27999;SDS011;15328;50.860;10.562;2023-04-24T05:03:14;3.10;;;1.30;;
27999;SDS011;15328;50.860;10.562;2023-04-24T05:08:15;1.95;;;1.02;;
27999;SDS011;15328;50.860;10.562;2023-04-24T05:13:15;2.40;;;1.10;;
27999;SDS011;15328;50.860;10.562;2023-04-24T05:18:15;1.87;;;1.00;;
27999;SDS011;15328;50.860;10.562;2023-04-24T05:23:16;1.38;;;1.02;;
27999;SDS011;15328;50.860;10.562;2023-04-24T05:28:16;2.60;;;1.20;;
27999;SDS011;15328;50.860;10.562;2023-04-24T05:33:17;2.63;;;1.30;;
27999;SDS011;15328;50.860;10.562;2023-04-24T05:38:17;1.77;;;0.93;;
27999;SDS011;15328;50.860;10.562;2023-04-24T05:43:19;2.05;;;1.05;;
27999;SDS011;15328;50.860;10.562;2023-04-24T05:48:19;3.38;;;0.98;;
27999;SDS011;15328;50.860;10.562;2023-04-24T05:53:21;2.10;;;1.23;;
27999;SDS011;15328;50.860;10.562;2023-04-24T05:58:22;1.58;;;1.00;;
27999;SDS011;15328;50.860;10.562;2023-04-24T06:03:22;1.67;;;0.97;;
27999;SDS011;15328;50.860;10.562;2023-04-24T06:08:22;2.80;;;1.10;;
27999;SDS011;15328;50.860;10.562;2023-04-24T06:13:23;2.37;;;0.93;;
27999;SDS011;15328;50.860;10.562;2023-04-24T06:18:23;2.53;;;1.10;;
27999;SDS011;15328;50.860;10.562;2023-04-24T06:23:24;1.30;;;0.90;;
27999;SDS011;15328;50.860;10.562;2023-04-24T06:28:24;1.70;;;1.07;;
27999;SDS011;15328;50.860;10.562;2023-04-24T06:33:25;1.50;;;0.90;;
27999;SDS011;15328;50.860;10.562;2023-04-24T06:38:25;2.10;;;1.07;;
27999;SDS011;15328;50.860;10.562;2023-04-24T06:43:25;1.67;;;1.00;;
27999;SDS011;15328;50.860;10.562;2023-04-24T06:48:26;2.03;;;1.10;;
27999;SDS011;15328;50.860;10.562;2023-04-24T06:53:26;2.23;;;1.10;;
27999;SDS011;15328;50.860;10.562;2023-04-24T06:58:27;1.67;;;1.10;;
27999;SDS011;15328;50.860;10.562;2023-04-24T07:03:27;2.17;;;1.08;;
27999;SDS011;15328;50.860;10.562;2023-04-24T07:08:28;1.17;;;0.85;;
27999;SDS011;15328;50.860;10.562;2023-04-24T07:13:30;0.90;;;0.63;;
27999;SDS011;15328;50.860;10.562;2023-04-24T07:18:30;1.55;;;1.15;;
27999;SDS011;15328;50.860;10.562;2023-04-24T07:23:31;1.45;;;0.68;;
27999;SDS011;15328;50.860;10.562;2023-04-24T07:28:31;2.63;;;1.40;;
27999;SDS011;15328;50.860;10.562;2023-04-24T07:33:31;2.27;;;0.93;;
27999;SDS011;15328;50.860;10.562;2023-04-24T07:38:32;1.15;;;0.82;;
27999;SDS011;15328;50.860;10.562;2023-04-24T07:43:32;1.73;;;0.80;;
27999;SDS011;15328;50.860;10.562;2023-04-24T07:48:32;1.30;;;0.87;;
27999;SDS011;15328;50.860;10.562;2023-04-24T07:53:33;1.00;;;0.80;;
27999;SDS011;15328;50.860;10.562;2023-04-24T07:58:33;2.00;;;0.80;;
27999;SDS011;15328;50.860;10.562;2023-04-24T08:03:34;1.63;;;0.93;;
27999;SDS011;15328;50.860;10.562;2023-04-24T08:08:35;4.45;;;1.50;;
27999;SDS011;15328;50.860;10.562;2023-04-24T08:13:35;1.38;;;1.00;;
27999;SDS011;15328;50.860;10.562;2023-04-24T08:18:35;1.70;;;0.80;;
27999;SDS011;15328;50.860;10.562;2023-04-24T08:23:36;1.90;;;1.10;;
27999;SDS011;15328;50.860;10.562;2023-04-24T08:28:36;1.70;;;0.90;;
27999;SDS011;15328;50.860;10.562;2023-04-24T08:33:37;2.72;;;1.20;;
27999;SDS011;15328;50.860;10.562;2023-04-24T08:38:37;3.80;;;1.55;;
27999;SDS011;15328;50.860;10.562;2023-04-24T08:43:38;1.83;;;1.10;;
27999;SDS011;15328;50.860;10.562;2023-04-24T08:48:39;1.40;;;1.00;;
27999;SDS011;15328;50.860;10.562;2023-04-24T08:53:39;1.92;;;1.23;;
27999;SDS011;15328;50.860;10.562;2023-04-24T08:58:40;1.67;;;1.10;;
27999;SDS011;15328;50.860;10.562;2023-04-24T09:03:41;1.23;;;0.90;;
27999;SDS011;15328;50.860;10.562;2023-04-24T09:08:41;2.05;;;1.10;;
27999;SDS011;15328;50.860;10.562;2023-04-24T09:13:43;1.92;;;1.20;;
27999;SDS011;15328;50.860;10.562;2023-04-24T09:18:45;2.25;;;1.17;;
27999;SDS011;15328;50.860;10.562;2023-04-24T09:23:45;1.90;;;1.17;;
27999;SDS011;15328;50.860;10.562;2023-04-24T09:28:45;1.80;;;1.20;;
27999;SDS011;15328;50.860;10.562;2023-04-24T09:33:56;2.67;;;1.50;;
27999;SDS011;15328;50.860;10.562;2023-04-24T09:39:01;4.22;;;1.60;;
27999;SDS011;15328;50.860;10.562;2023-04-24T09:44:13;3.08;;;1.60;;
27999;SDS011;15328;50.860;10.562;2023-04-24T09:49:25;3.28;;;1.30;;
27999;SDS011;15328;50.860;10.562;2023-04-24T09:54:27;3.03;;;1.60;;
27999;SDS011;15328;50.860;10.562;2023-04-24T09:59:27;3.37;;;1.47;;
27999;SDS011;15328;50.860;10.562;2023-04-24T10:04:29;2.13;;;1.25;;
27999;SDS011;15328;50.860;10.562;2023-04-24T10:09:29;3.05;;;2.00;;
27999;SDS011;15328;50.860;10.562;2023-04-24T10:14:30;2.00;;;1.67;;
27999;SDS011;15328;50.860;10.562;2023-04-24T10:19:30;1.40;;;1.30;;
27999;SDS011;15328;50.860;10.562;2023-04-24T10:24:31;2.42;;;1.48;;
27999;SDS011;15328;50.860;10.562;2023-04-24T10:29:33;1.52;;;1.27;;
27999;SDS011;15328;50.860;10.562;2023-04-24T10:34:36;2.97;;;1.38;;
27999;SDS011;15328;50.860;10.562;2023-04-24T10:39:36;1.73;;;1.35;;
27999;SDS011;15328;50.860;10.562;2023-04-24T10:44:37;2.75;;;1.88;;
27999;SDS011;15328;50.860;10.562;2023-04-24T10:49:37;1.95;;;1.27;;
27999;SDS011;15328;50.860;10.562;2023-04-24T10:54:42;1.95;;;1.30;;
27999;SDS011;15328;50.860;10.562;2023-04-24T10:59:45;3.20;;;1.88;;
27999;SDS011;15328;50.860;10.562;2023-04-24T11:04:47;2.58;;;1.60;;
27999;SDS011;15328;50.860;10.562;2023-04-24T11:09:57;2.72;;;1.77;;
27999;SDS011;15328;50.860;10.562;2023-04-24T11:15:01;3.90;;;1.48;;
27999;SDS011;15328;50.860;10.562;2023-04-24T11:20:09;3.28;;;1.80;;
27999;SDS011;15328;50.860;10.562;2023-04-24T11:25:11;1.90;;;1.48;;
27999;SDS011;15328;50.860;10.562;2023-04-24T11:30:12;4.30;;;2.10;;
27999;SDS011;15328;50.860;10.562;2023-04-24T11:35:21;3.22;;;1.60;;
27999;SDS011;15328;50.860;10.562;2023-04-24T11:40:27;1.90;;;1.60;;
27999;SDS011;15328;50.860;10.562;2023-04-24T11:45:28;2.87;;;1.60;;
27999;SDS011;15328;50.860;10.562;2023-04-24T11:50:30;3.40;;;1.70;;
27999;SDS011;15328;50.860;10.562;2023-04-24T11:55:30;1.85;;;1.33;;
27999;SDS011;15328;50.860;10.562;2023-04-24T12:00:31;2.07;;;1.20;;
27999;SDS011;15328;50.860;10.562;2023-04-24T12:05:34;1.90;;;1.00;;
27999;SDS011;15328;50.860;10.562;2023-04-24T12:10:35;2.10;;;1.00;;
27999;SDS011;15328;50.860;10.562;2023-04-24T12:15:35;1.23;;;1.00;;
27999;SDS011;15328;50.860;10.562;2023-04-24T12:20:40;2.22;;;1.52;;
27999;SDS011;15328;50.860;10.562;2023-04-24T12:25:40;1.70;;;1.02;;
27999;SDS011;15328;50.860;10.562;2023-04-24T12:30:43;2.13;;;1.30;;
27999;SDS011;15328;50.860;10.562;2023-04-24T12:35:44;1.15;;;1.00;;
27999;SDS011;15328;50.860;10.562;2023-04-24T12:40:45;1.73;;;1.00;;
27999;SDS011;15328;50.860;10.562;2023-04-24T12:45:47;1.20;;;0.90;;
27999;SDS011;15328;50.860;10.562;2023-04-24T12:50:48;0.93;;;0.80;;
27999;SDS011;15328;50.860;10.562;2023-04-24T12:55:48;0.90;;;0.70;;
27999;SDS011;15328;50.860;10.562;2023-04-24T13:00:52;1.27;;;0.60;;
27999;SDS011;15328;50.860;10.562;2023-04-24T13:05:53;0.75;;;0.70;;
27999;SDS011;15328;50.860;10.562;2023-04-24T13:10:53;2.20;;;0.90;;
27999;SDS011;15328;50.860;10.562;2023-04-24T13:15:54;0.95;;;0.55;;
27999;SDS011;15328;50.860;10.562;2023-04-24T13:20:54;0.73;;;0.60;;
27999;SDS011;15328;50.860;10.562;2023-04-24T13:25:55;1.17;;;0.65;;
27999;SDS011;15328;50.860;10.562;2023-04-24T13:30:58;1.02;;;0.40;;
27999;SDS011;15328;50.860;10.562;2023-04-24T13:35:58;1.27;;;0.40;;
27999;SDS011;15328;50.860;10.562;2023-04-24T13:40:59;0.40;;;0.40;;
27999;SDS011;15328;50.860;10.562;2023-04-24T13:45:59;0.60;;;0.50;;
27999;SDS011;15328;50.860;10.562;2023-04-24T13:51:02;0.65;;;0.50;;
27999;SDS011;15328;50.860;10.562;2023-04-24T13:56:03;2.15;;;0.40;;
27999;SDS011;15328;50.860;10.562;2023-04-24T14:01:03;1.05;;;0.63;;
27999;SDS011;15328;50.860;10.562;2023-04-24T14:06:04;0.60;;;0.50;;
27999;SDS011;15328;50.860;10.562;2023-04-24T14:11:06;0.50;;;0.40;;
27999;SDS011;15328;50.860;10.562;2023-04-24T14:16:07;0.60;;;0.40;;
27999;SDS011;15328;50.860;10.562;2023-04-24T14:21:07;0.40;;;0.30;;
27999;SDS011;15328;50.860;10.562;2023-04-24T14:26:08;0.55;;;0.40;;
27999;SDS011;15328;50.860;10.562;2023-04-24T14:31:08;0.30;;;0.30;;
27999;SDS011;15328;50.860;10.562;2023-04-24T14:36:09;1.13;;;0.30;;
27999;SDS011;15328;50.860;10.562;2023-04-24T14:41:09;0.22;;;0.20;;
27999;SDS011;15328;50.860;10.562;2023-04-24T14:46:11;0.55;;;0.40;;
27999;SDS011;15328;50.860;10.562;2023-04-24T14:51:12;0.70;;;0.50;;
27999;SDS011;15328;50.860;10.562;2023-04-24T14:56:12;0.45;;;0.40;;
27999;SDS011;15328;50.860;10.562;2023-04-24T15:01:12;1.03;;;0.53;;
27999;SDS011;15328;50.860;10.562;2023-04-24T15:06:14;0.90;;;0.60;;
27999;SDS011;15328;50.860;10.562;2023-04-24T15:11:14;1.45;;;0.82;;
27999;SDS011;15328;50.860;10.562;2023-04-24T15:16:15;1.40;;;0.80;;
27999;SDS011;15328;50.860;10.562;2023-04-24T15:21:15;1.80;;;1.05;;
27999;SDS011;15328;50.860;10.562;2023-04-24T15:26:16;0.80;;;0.70;;
27999;SDS011;15328;50.860;10.562;2023-04-24T15:31:16;1.07;;;0.90;;
27999;SDS011;15328;50.860;10.562;2023-04-24T15:36:17;1.30;;;1.03;;
27999;SDS011;15328;50.860;10.562;2023-04-24T15:41:17;1.67;;;1.30;;
27999;SDS011;15328;50.860;10.562;2023-04-24T15:46:18;1.90;;;1.23;;
27999;SDS011;15328;50.860;10.562;2023-04-24T15:51:18;3.08;;;1.80;;
27999;SDS011;15328;50.860;10.562;2023-04-24T15:56:18;2.03;;;1.67;;
27999;SDS011;15328;50.860;10.562;2023-04-24T16:01:19;2.05;;;1.60;;
27999;SDS011;15328;50.860;10.562;2023-04-24T16:06:20;2.65;;;1.80;;
27999;SDS011;15328;50.860;10.562;2023-04-24T16:11:21;2.10;;;1.60;;
27999;SDS011;15328;50.860;10.562;2023-04-24T16:16:21;2.88;;;1.63;;
27999;SDS011;15328;50.860;10.562;2023-04-24T16:21:23;2.95;;;1.25;;
27999;SDS011;15328;50.860;10.562;2023-04-24T16:26:23;2.55;;;1.95;;
27999;SDS011;15328;50.860;10.562;2023-04-24T16:31:24;2.38;;;1.63;;
27999;SDS011;15328;50.860;10.562;2023-04-24T16:36:25;2.83;;;1.70;;
27999;SDS011;15328;50.860;10.562;2023-04-24T16:41:27;2.97;;;1.70;;
27999;SDS011;15328;50.860;10.562;2023-04-24T16:46:28;4.07;;;2.15;;
27999;SDS011;15328;50.860;10.562;2023-04-24T16:51:28;4.90;;;2.13;;
27999;SDS011;15328;50.860;10.562;2023-04-24T16:56:28;7.67;;;4.90;;
27999;SDS011;15328;50.860;10.562;2023-04-24T17:01:29;4.25;;;2.55;;
27999;SDS011;15328;50.860;10.562;2023-04-24T17:06:29;2.72;;;2.10;;
27999;SDS011;15328;50.860;10.562;2023-04-24T17:11:30;3.95;;;2.17;;
27999;SDS011;15328;50.860;10.562;2023-04-24T17:16:30;4.38;;;2.20;;
27999;SDS011;15328;50.860;10.562;2023-04-24T17:21:31;3.45;;;2.00;;
27999;SDS011;15328;50.860;10.562;2023-04-24T17:26:32;2.67;;;2.10;;
27999;SDS011;15328;50.860;10.562;2023-04-24T17:31:32;4.22;;;2.47;;
27999;SDS011;15328;50.860;10.562;2023-04-24T17:36:33;3.20;;;2.27;;
27999;SDS011;15328;50.860;10.562;2023-04-24T17:41:33;4.47;;;2.30;;
27999;SDS011;15328;50.860;10.562;2023-04-24T17:46:34;5.10;;;2.65;;
27999;SDS011;15328;50.860;10.562;2023-04-24T17:51:34;6.00;;;2.55;;
27999;SDS011;15328;50.860;10.562;2023-04-24T17:56:34;5.17;;;2.60;;
27999;SDS011;15328;50.860;10.562;2023-04-24T18:01:35;5.47;;;2.55;;
27999;SDS011;15328;50.860;10.562;2023-04-24T18:06:35;4.90;;;2.70;;
27999;SDS011;15328;50.860;10.562;2023-04-24T18:11:36;2.60;;;1.92;;
27999;SDS011;15328;50.860;10.562;2023-04-24T18:16:36;7.78;;;4.78;;
27999;SDS011;15328;50.860;10.562;2023-04-24T18:21:37;5.80;;;3.20;;
27999;SDS011;15328;50.860;10.562;2023-04-24T18:26:37;5.23;;;3.30;;
27999;SDS011;15328;50.860;10.562;2023-04-24T18:31:37;5.60;;;2.55;;
27999;SDS011;15328;50.860;10.562;2023-04-24T18:36:38;6.47;;;2.80;;
27999;SDS011;15328;50.860;10.562;2023-04-24T18:41:38;7.28;;;2.70;;
27999;SDS011;15328;50.860;10.562;2023-04-24T18:46:39;7.22;;;2.55;;
27999;SDS011;15328;50.860;10.562;2023-04-24T18:51:40;4.07;;;2.42;;
27999;SDS011;15328;50.860;10.562;2023-04-24T18:56:40;4.72;;;2.90;;
27999;SDS011;15328;50.860;10.562;2023-04-24T19:01:41;5.03;;;2.80;;
27999;SDS011;15328;50.860;10.562;2023-04-24T19:06:41;5.43;;;3.03;;
27999;SDS011;15328;50.860;10.562;2023-04-24T19:11:41;4.32;;;2.72;;
27999;SDS011;15328;50.860;10.562;2023-04-24T19:16:43;7.20;;;3.33;;
27999;SDS011;15328;50.860;10.562;2023-04-24T19:21:44;7.22;;;3.97;;
27999;SDS011;15328;50.860;10.562;2023-04-24T19:26:46;7.22;;;3.70;;
27999;SDS011;15328;50.860;10.562;2023-04-24T19:31:46;8.68;;;3.80;;
27999;SDS011;15328;50.860;10.562;2023-04-24T19:36:47;8.85;;;4.97;;
27999;SDS011;15328;50.860;10.562;2023-04-24T19:41:47;8.00;;;4.72;;
27999;SDS011;15328;50.860;10.562;2023-04-24T19:46:48;7.87;;;4.30;;
27999;SDS011;15328;50.860;10.562;2023-04-24T19:51:48;8.13;;;4.90;;
27999;SDS011;15328;50.860;10.562;2023-04-24T19:56:48;8.53;;;4.53;;
27999;SDS011;15328;50.860;10.562;2023-04-24T20:01:49;9.77;;;5.38;;
27999;SDS011;15328;50.860;10.562;2023-04-24T20:06:50;7.07;;;4.47;;
27999;SDS011;15328;50.860;10.562;2023-04-24T20:11:50;8.13;;;4.88;;
27999;SDS011;15328;50.860;10.562;2023-04-24T20:16:52;7.00;;;4.57;;
27999;SDS011;15328;50.860;10.562;2023-04-24T20:21:54;7.50;;;4.57;;
27999;SDS011;15328;50.860;10.562;2023-04-24T20:26:54;6.18;;;4.45;;
27999;SDS011;15328;50.860;10.562;2023-04-24T20:31:56;7.05;;;4.72;;
27999;SDS011;15328;50.860;10.562;2023-04-24T20:36:56;8.30;;;4.50;;
27999;SDS011;15328;50.860;10.562;2023-04-24T20:41:57;8.73;;;4.80;;
27999;SDS011;15328;50.860;10.562;2023-04-24T20:46:58;5.25;;;4.25;;
27999;SDS011;15328;50.860;10.562;2023-04-24T20:51:59;7.72;;;4.50;;
27999;SDS011;15328;50.860;10.562;2023-04-24T20:56:59;8.43;;;5.03;;
27999;SDS011;15328;50.860;10.562;2023-04-24T21:02:00;10.45;;;5.30;;
27999;SDS011;15328;50.860;10.562;2023-04-24T21:07:01;8.05;;;4.28;;
27999;SDS011;15328;50.860;10.562;2023-04-24T21:12:01;8.32;;;4.30;;
27999;SDS011;15328;50.860;10.562;2023-04-24T21:17:02;6.60;;;4.65;;
27999;SDS011;15328;50.860;10.562;2023-04-24T21:22:02;7.32;;;4.93;;
27999;SDS011;15328;50.860;10.562;2023-04-24T21:27:03;8.40;;;4.83;;
27999;SDS011;15328;50.860;10.562;2023-04-24T21:32:03;9.82;;;5.20;;
27999;SDS011;15328;50.860;10.562;2023-04-24T21:37:04;6.75;;;4.35;;
27999;SDS011;15328;50.860;10.562;2023-04-24T21:42:04;10.37;;;5.00;;
27999;SDS011;15328;50.860;10.562;2023-04-24T21:47:05;10.80;;;4.63;;
27999;SDS011;15328;50.860;10.562;2023-04-24T21:52:05;12.02;;;5.40;;
27999;SDS011;15328;50.860;10.562;2023-04-24T21:57:06;7.50;;;4.32;;
27999;SDS011;15328;50.860;10.562;2023-04-24T22:02:07;6.95;;;4.80;;
27999;SDS011;15328;50.860;10.562;2023-04-24T22:07:07;7.83;;;4.50;;
27999;SDS011;15328;50.860;10.562;2023-04-24T22:12:07;13.13;;;5.15;;
27999;SDS011;15328;50.860;10.562;2023-04-24T22:17:08;7.53;;;4.43;;
27999;SDS011;15328;50.860;10.562;2023-04-24T22:22:09;5.85;;;4.20;;
27999;SDS011;15328;50.860;10.562;2023-04-24T22:27:09;7.20;;;4.32;;
27999;SDS011;15328;50.860;10.562;2023-04-24T22:32:10;5.57;;;4.10;;
27999;SDS011;15328;50.860;10.562;2023-04-24T22:37:10;7.80;;;4.60;;
27999;SDS011;15328;50.860;10.562;2023-04-24T22:42:11;9.13;;;4.30;;
27999;SDS011;15328;50.860;10.562;2023-04-24T22:47:12;6.63;;;4.20;;
27999;SDS011;15328;50.860;10.562;2023-04-24T22:52:12;8.03;;;4.13;;
27999;SDS011;15328;50.860;10.562;2023-04-24T22:57:13;6.13;;;3.60;;
27999;SDS011;15328;50.860;10.562;2023-04-24T23:02:14;7.93;;;4.20;;
27999;SDS011;15328;50.860;10.562;2023-04-24T23:07:15;6.95;;;4.13;;
27999;SDS011;15328;50.860;10.562;2023-04-24T23:12:16;7.88;;;4.25;;
27999;SDS011;15328;50.860;10.562;2023-04-24T23:17:16;7.22;;;4.30;;
27999;SDS011;15328;50.860;10.562;2023-04-24T23:22:16;6.80;;;3.88;;
27999;SDS011;15328;50.860;10.562;2023-04-24T23:27:17;7.78;;;4.38;;
27999;SDS011;15328;50.860;10.562;2023-04-24T23:32:17;8.63;;;4.10;;
27999;SDS011;15328;50.860;10.562;2023-04-24T23:37:17;7.65;;;3.88;;
27999;SDS011;15328;50.860;10.562;2023-04-24T23:42:18;7.15;;;4.00;;
27999;SDS011;15328;50.860;10.562;2023-04-24T23:47:18;7.00;;;4.07;;
27999;SDS011;15328;50.860;10.562;2023-04-24T23:52:18;7.15;;;3.95;;
27999;SDS011;15328;50.860;10.562;2023-04-24T23:57:19;7.28;;;4.30;;
